| time (UTC) | temp F | wind direction | speed knots | gust knots | rain 1hr in | rain 24hr in | rain mn in | humidity % | barometer mb |
| 20260906100004 | 77 | 37 | 1.7 | 4.3 | 0.00 | 0.00 | 0.00 | 84 | 1011.3 |
| 20260906095505 | 77 | 26 | 2.6 | 6.1 | 0.00 | 0.00 | 0.00 | 83 | 1011.2 |
| 20260906094504 | 77 | 11 | 3.5 | 8.7 | 0.00 | 0.00 | 0.00 | 83 | 1011.2 |
| 20260906094005 | 77 | 18 | 2.6 | 8.7 | 0.00 | 0.00 | 0.00 | 83 | 1011.2 |
| 20260906093504 | 77 | 10 | 3.5 | 8.7 | 0.00 | 0.00 | 0.00 | 82 | 1011.1 |
| 20260906093005 | 77 | 8 | 3.5 | 11.3 | 0.00 | 0.00 | 0.00 | 82 | 1011.0 |
| 20260906092504 | 78 | 13 | 2.6 | 11.3 | 0.00 | 0.00 | 0.00 | 82 | 1010.9 |
| 20260906092005 | 78 | 15 | 2.6 | 8.7 | 0.00 | 0.00 | 0.00 | 82 | 1011.0 |
| 20260906091505 | 78 | 16 | 0.9 | 5.2 | 0.00 | 0.00 | 0.00 | 82 | 1011.0 |
| 20260906091005 | 78 | 15 | 1.7 | 7.8 | 0.00 | 0.00 | 0.00 | 81 | 1010.8 |
| 20260906090504 | 78 | 15 | 2.6 | 7.8 | 0.00 | 0.00 | 0.00 | 81 | 1010.6 |
| 20260906090005 | 78 | 15 | 0.9 | 6.1 | 0.00 | 0.00 | 0.00 | 81 | 1010.7 |
| 20260906085505 | 78 | 16 | 0.9 | 7.0 | 0.00 | 0.00 | 0.00 | 81 | 1010.6 |
| 20260906085005 | 78 | 16 | 0.9 | 7.0 | 0.00 | 0.00 | 0.00 | 81 | 1010.7 |
| 20260906084505 | 78 | 17 | 0.9 | 6.1 | 0.00 | 0.00 | 0.00 | 81 | 1010.8 |
| 20260906084005 | 78 | 17 | 2.6 | 6.1 | 0.00 | 0.00 | 0.00 | 81 | 1010.6 |
| 20260906083005 | 79 | 17 | 1.7 | 7.0 | 0.00 | 0.00 | 0.00 | 81 | 1010.8 |
| 20260906082505 | 79 | 16 | 0.9 | 3.5 | 0.00 | 0.00 | 0.00 | 81 | 1010.8 |
| 20260906082005 | 79 | 16 | 0.9 | 6.1 | 0.00 | 0.00 | 0.00 | 81 | 1010.8 |
| 20260906081505 | 79 | 16 | 1.7 | 6.1 | 0.00 | 0.00 | 0.00 | 82 | 1010.8 |
| 20260906081006 | 79 | 17 | 0.9 | 3.5 | 0.00 | 0.00 | 0.00 | 82 | 1010.9 |
| 20260906080505 | 79 | 16 | 0.9 | 3.5 | 0.00 | 0.00 | 0.00 | 82 | 1011.0 |
| 20260906080006 | 79 | 16 | 0.9 | 3.5 | 0.00 | 0.00 | 0.00 | 81 | 1010.8 |
| 20260906074504 | 80 | 21 | 1.7 | 7.0 | 0.00 | 0.00 | 0.00 | 81 | 1010.7 |
| 20260906074005 | 80 | 22 | 1.7 | 6.1 | 0.00 | 0.00 | 0.00 | 80 | 1010.5 |
| 20260906073505 | 80 | 23 | 1.7 | 5.2 | 0.00 | 0.00 | 0.00 | 80 | 1010.6 |
| 20260906073005 | 80 | 23 | 1.7 | 5.2 | 0.00 | 0.00 | 0.00 | 79 | 1010.6 |
| 20260906072505 | 80 | 25 | 2.6 | 7.0 | 0.00 | 0.00 | 0.00 | 79 | 1010.6 |
| 20260906071505 | 81 | 29 | 1.7 | 6.1 | 0.00 | 0.00 | 0.00 | 78 | 1010.7 |
| 20260906071005 | 81 | 30 | 1.7 | 6.1 | 0.00 | 0.00 | 0.00 | 78 | 1010.7 |
| 20260906070504 | 81 | 32 | 0.9 | 3.5 | 0.00 | 0.00 | 0.00 | 78 | 1010.8 |
| 20260906070005 | 81 | 32 | 0.0 | 3.5 | 0.00 | 0.00 | 0.00 | 78 | 1010.9 |
| 20260906065504 | 81 | 32 | 0.9 | 3.5 | 0.00 | 0.00 | 0.00 | 77 | 1010.9 |
| 20260906065005 | 81 | 32 | 0.9 | 3.5 | 0.00 | 0.00 | 0.00 | 77 | 1010.9 |
| 20260906064504 | 81 | 33 | 0.0 | 1.7 | 0.00 | 0.00 | 0.00 | 77 | 1010.9 |
| 20260906064005 | 81 | 33 | 0.9 | 2.6 | 0.00 | 0.00 | 0.00 | 77 | 1011.0 |
| 20260906063505 | 82 | 32 | 0.9 | 3.5 | 0.00 | 0.00 | 0.00 | 76 | 1010.9 |
| 20260906063005 | 82 | 33 | 1.7 | 4.3 | 0.00 | 0.00 | 0.00 | 76 | 1010.9 |
| 20260906062505 | 82 | 33 | 1.7 | 4.3 | 0.00 | 0.00 | 0.00 | 76 | 1011.1 |
| 20260906062005 | 82 | 34 | 0.9 | 3.5 | 0.00 | 0.00 | 0.00 | 75 | 1011.1 |
| 20260906061005 | 82 | 34 | 0.9 | 4.3 | 0.00 | 0.00 | 0.00 | 75 | 1011.0 |
| 20260906060504 | 82 | 33 | 0.9 | 4.3 | 0.00 | 0.00 | 0.00 | 75 | 1011.0 |
| 20260906055505 | 83 | 34 | 1.7 | 4.3 | 0.00 | 0.00 | 0.00 | 74 | 1011.0 |
| 20260906055005 | 83 | 38 | 1.7 | 6.1 | 0.00 | 0.00 | 0.00 | 74 | 1010.9 |
| 20260906054505 | 83 | 43 | 1.7 | 6.1 | 0.00 | 0.00 | 0.00 | 73 | 1011.0 |
| 20260906054005 | 83 | 53 | 1.7 | 3.5 | 0.00 | 0.00 | 0.00 | 73 | 1010.9 |
| 20260906053504 | 83 | 55 | 0.9 | 3.5 | 0.00 | 0.00 | 0.00 | 73 | 1010.8 |
| 20260906053005 | 83 | 56 | 0.9 | 3.5 | 0.00 | 0.00 | 0.00 | 72 | 1010.9 |
| 20260906052505 | 83 | 56 | 0.9 | 3.5 | 0.00 | 0.00 | 0.00 | 72 | 1010.9 |
| 20260906052005 | 83 | 57 | 0.0 | 0.9 | 0.00 | 0.00 | 0.00 | 72 | 1010.9 |
| 20260906051505 | 84 | 0 | 0.0 | 0.0 | 0.00 | 0.00 | 0.00 | 71 | 1010.8 |
| 20260906051005 | 84 | 57 | 0.0 | 0.9 | 0.00 | 0.00 | 0.00 | 71 | 1010.5 |
| 20260906050005 | 84 | 0 | 0.0 | 0.0 | 0.00 | 0.00 | 0.00 | 71 | 1010.7 |
| 20260906045504 | 84 | 0 | 0.0 | 0.0 | 0.00 | 0.00 | 0.00 | 70 | 1010.7 |
| 20260906045006 | 84 | 57 | 0.0 | 2.6 | 0.00 | 0.00 | 0.00 | 70 | 1010.6 |
| 20260906044505 | 84 | 57 | 0.9 | 2.6 | 0.00 | 0.00 | 0.00 | 70 | 1010.6 |
| 20260906044006 | 84 | 57 | 0.9 | 2.6 | 0.00 | 0.00 | 0.00 | 70 | 1010.6 |
| 20260906043505 | 84 | 56 | 0.9 | 4.3 | 0.00 | 0.00 | 0.00 | 69 | 1010.6 |
| 20260906043005 | 84 | 55 | 0.9 | 4.3 | 0.00 | 0.00 | 0.00 | 69 | 1010.7 |
| 20260906042504 | 85 | 54 | 0.0 | 4.3 | 0.00 | 0.00 | 0.00 | 69 | 1010.5 |
| 20260906042005 | 85 | 53 | 0.9 | 3.5 | 0.00 | 0.00 | 0.00 | 69 | 1010.3 |
| 20260906041504 | 85 | 57 | 0.9 | 4.3 | 0.00 | 0.00 | 0.00 | 69 | 1010.5 |
| 20260906041005 | 85 | 59 | 0.9 | 4.3 | 0.00 | 0.00 | 0.00 | 69 | 1010.6 |
| 20260906040504 | 85 | 0 | 0.0 | 0.0 | 0.00 | 0.00 | 0.00 | 68 | 1010.3 |
| 20260906040005 | 85 | 0 | 0.0 | 0.0 | 0.00 | 0.00 | 0.00 | 68 | 1010.3 |
| 20260906035505 | 85 | 0 | 0.0 | 0.0 | 0.00 | 0.00 | 0.00 | 68 | 1010.1 |
| 20260906035005 | 85 | 0 | 0.0 | 0.0 | 0.00 | 0.00 | 0.00 | 68 | 1010.3 |
| 20260906034505 | 85 | 0 | 0.0 | 0.0 | 0.00 | 0.00 | 0.00 | 67 | 1010.2 |
| 20260906034005 | 85 | 0 | 0.0 | 0.0 | 0.00 | 0.00 | 0.00 | 67 | 1010.3 |
| 20260906033504 | 85 | 0 | 0.0 | 0.0 | 0.00 | 0.00 | 0.00 | 67 | 1010.1 |
| 20260906032505 | 85 | 0 | 0.0 | 0.0 | 0.00 | 0.00 | 0.00 | 66 | 1010.1 |
| 20260906032005 | 85 | 0 | 0.0 | 0.0 | 0.00 | 0.00 | 0.00 | 67 | 1010.1 |
| 20260906031504 | 85 | 0 | 0.0 | 0.0 | 0.00 | 0.00 | 0.00 | 67 | 1010.1 |
| 20260906031005 | 85 | 0 | 0.0 | 0.0 | 0.00 | 0.00 | 0.00 | 66 | 1010.1 |
| 20260906030504 | 85 | 0 | 0.0 | 0.0 | 0.00 | 0.00 | 0.00 | 66 | 1010.1 |
| 20260906025504 | 86 | 0 | 0.0 | 0.0 | 0.00 | 0.00 | 0.00 | 66 | 1010.4 |
| 20260906025005 | 86 | 0 | 0.0 | 0.0 | 0.00 | 0.00 | 0.00 | 66 | 1010.4 |
| 20260906024005 | 85 | 0 | 0.0 | 0.0 | 0.00 | 0.00 | 0.00 | 66 | 1010.2 |
| 20260906022504 | 85 | 0 | 0.0 | 0.0 | 0.00 | 0.00 | 0.00 | 66 | 1010.4 |
| 20260906022005 | 85 | 0 | 0.0 | 0.0 | 0.00 | 0.00 | 0.00 | 66 | 1010.3 |
| 20260906021504 | 85 | 0 | 0.0 | 0.0 | 0.00 | 0.00 | 0.00 | 65 | 1010.1 |
| 20260906020006 | 86 | 0 | 0.0 | 0.0 | 0.00 | 0.00 | 0.00 | 64 | 1009.8 |
| 20260906015505 | 86 | 0 | 0.0 | 0.0 | 0.00 | 0.00 | 0.00 | 65 | 1009.8 |
| 20260906015005 | 86 | 0 | 0.0 | 0.0 | 0.00 | 0.00 | 0.00 | 64 | 1009.8 |
| 20260906014504 | 87 | 0 | 0.0 | 0.0 | 0.00 | 0.00 | 0.00 | 64 | 1009.8 |
| 20260906014005 | 87 | 0 | 0.0 | 0.0 | 0.00 | 0.00 | 0.00 | 65 | 1009.6 |
| 20260906013504 | 88 | 0 | 0.0 | 0.0 | 0.00 | 0.00 | 0.00 | 65 | 1009.5 |
| 20260906013005 | 88 | 0 | 0.0 | 0.0 | 0.00 | 0.00 | 0.00 | 65 | 1009.4 |
| 20260906012504 | 88 | 0 | 0.0 | 0.0 | 0.00 | 0.00 | 0.00 | 63 | 1009.3 |
| 20260906011005 | 90 | 0 | 0.0 | 0.0 | 0.00 | 0.00 | 0.00 | 64 | 1009.1 |
| 20260906010504 | 90 | 0 | 0.0 | 0.0 | 0.00 | 0.00 | 0.00 | 64 | 1009.0 |
| 20260906005504 | 92 | 43 | 3.5 | 7.0 | 0.00 | 0.00 | 0.00 | 60 | 1008.8 |
| 20260906005005 | 92 | 349 | 2.6 | 4.3 | 0.00 | 0.00 | 0.00 | 57 | 1008.8 |
| 20260906004504 | 92 | 318 | 1.7 | 2.6 | 0.00 | 0.00 | 0.00 | 58 | 1008.7 |
| 20260906004005 | 93 | 318 | 0.9 | 2.6 | 0.00 | 0.00 | 0.00 | 58 | 1008.7 |
| 20260906003005 | 93 | 0 | 0.0 | 0.0 | 0.00 | 0.00 | 0.00 | 59 | 1008.8 |
| 20260906002505 | 93 | 0 | 0.0 | 0.0 | 0.00 | 0.00 | 0.00 | 59 | 1009.0 |
| 20260906002005 | 93 | 0 | 0.0 | 0.0 | 0.00 | 0.00 | 0.00 | 59 | 1009.0 |
| 20260906001504 | 93 | 0 | 0.0 | 0.0 | 0.00 | 0.00 | 0.00 | 58 | 1009.1 |
| 20260906001005 | 93 | 0 | 0.0 | 0.0 | 0.00 | 0.00 | 0.00 | 58 | 1009.1 |
| 20260906000504 | 94 | 0 | 0.0 | 0.0 | 0.00 | 0.00 | 0.00 | 59 | 1009.3 |
| 20260906000005 | 94 | 317 | 0.9 | 3.5 | 0.00 | 0.00 | 0.00 | 58 | 1009.3 |
| 20260905235504 | 94 | 317 | 1.7 | 3.5 | 0.00 | 0.00 | 0.00 | 58 | 1009.4 |
| 20260905235005 | 94 | 317 | 1.7 | 5.2 | 0.00 | 0.00 | 0.00 | 58 | 1009.4 |
| 20260905234005 | 94 | 320 | 0.9 | 4.3 | 0.00 | 0.00 | 0.00 | 57 | 1009.4 |
| 20260905233504 | 94 | 321 | 1.7 | 4.3 | 0.00 | 0.00 | 0.00 | 57 | 1009.3 |
| 20260905233005 | 94 | 321 | 1.7 | 3.5 | 0.00 | 0.00 | 0.00 | 56 | 1009.4 |
| 20260905232504 | 95 | 322 | 1.7 | 4.3 | 0.00 | 0.00 | 0.00 | 56 | 1009.4 |
| 20260905232005 | 95 | 323 | 0.9 | 7.0 | 0.00 | 0.00 | 0.00 | 56 | 1009.3 |
| 20260905231504 | 95 | 326 | 0.9 | 7.0 | 0.00 | 0.00 | 0.00 | 56 | 1009.3 |
| 20260905231005 | 95 | 327 | 0.0 | 3.5 | 0.00 | 0.00 | 0.00 | 55 | 1009.3 |
| 20260905230504 | 95 | 0 | 0.0 | 0.0 | 0.00 | 0.00 | 0.00 | 54 | 1009.3 |
| 20260905230005 | 96 | 0 | 0.0 | 0.0 | 0.00 | 0.00 | 0.00 | 54 | 1009.2 |
| 20260905225504 | 96 | 0 | 0.0 | 0.0 | 0.00 | 0.00 | 0.00 | 53 | 1009.1 |
| 20260905225005 | 96 | 0 | 0.0 | 0.0 | 0.00 | 0.00 | 0.00 | 53 | 1009.1 |
| 20260905224004 | 96 | 325 | 1.7 | 7.8 | 0.00 | 0.00 | 0.00 | 52 | 1009.1 |
| 20260905222504 | 97 | 344 | 2.6 | 7.8 | 0.00 | 0.00 | 0.00 | 50 | 1008.8 |
| 20260905222005 | 98 | 9 | 2.6 | 8.7 | 0.00 | 0.00 | 0.00 | 50 | 1008.9 |
| 20260905221504 | 98 | 9 | 2.6 | 8.7 | 0.00 | 0.00 | 0.00 | 49 | 1009.0 |
| 20260905221005 | 98 | 340 | 2.6 | 7.8 | 0.00 | 0.00 | 0.00 | 50 | 1008.8 |
| 20260905220505 | 98 | 318 | 3.5 | 8.7 | 0.00 | 0.00 | 0.00 | 50 | 1008.9 |
| 20260905220004 | 98 | 315 | 3.5 | 9.6 | 0.00 | 0.00 | 0.00 | 50 | 1008.9 |
| 20260905215505 | 99 | 331 | 2.6 | 9.6 | 0.00 | 0.00 | 0.00 | 49 | 1009.0 |
| 20260905215005 | 99 | 325 | 2.6 | 8.7 | 0.00 | 0.00 | 0.00 | 50 | 1009.1 |
| 20260905214005 | 99 | 305 | 2.6 | 9.6 | 0.00 | 0.00 | 0.00 | 49 | 1008.9 |
| 20260905213005 | 99 | 300 | 3.5 | 10.4 | 0.00 | 0.00 | 0.00 | 49 | 1009.0 |
| 20260905212005 | 100 | 227 | 0.9 | 8.7 | 0.00 | 0.00 | 0.00 | 50 | 1009.0 |
| 20260905211505 | 100 | 326 | 1.7 | 7.8 | 0.00 | 0.00 | 0.00 | 50 | 1008.9 |
| 20260905211004 | 99 | 300 | 2.6 | 7.8 | 0.00 | 0.00 | 0.00 | 50 | 1009.0 |
| 20260905210504 | 100 | 304 | 3.5 | 8.7 | 0.00 | 0.00 | 0.00 | 49 | 1009.1 |
| 20260905210005 | 100 | 281 | 3.5 | 8.7 | 0.00 | 0.00 | 0.00 | 50 | 1009.0 |
| 20260905205504 | 100 | 222 | 2.6 | 7.8 | 0.00 | 0.00 | 0.00 | 50 | 1009.2 |
| 20260905205005 | 100 | 225 | 3.5 | 7.8 | 0.00 | 0.00 | 0.00 | 50 | 1009.2 |
| 20260905204504 | 99 | 224 | 2.6 | 7.8 | 0.00 | 0.00 | 0.00 | 51 | 1009.3 |
| 20260905204005 | 99 | 212 | 0.9 | 4.3 | 0.00 | 0.00 | 0.00 | 51 | 1009.4 |
| 20260905202004 | 99 | 232 | 1.7 | 8.7 | 0.00 | 0.00 | 0.00 | 51 | 1009.6 |
| 20260905201505 | 99 | 254 | 2.6 | 7.8 | 0.00 | 0.00 | 0.00 | 50 | 1009.8 |
| 20260905201004 | 99 | 248 | 2.6 | 9.6 | 0.00 | 0.00 | 0.00 | 50 | 1009.7 |
| 20260905200504 | 99 | 226 | 1.7 | 9.6 | 0.00 | 0.00 | 0.00 | 50 | 1009.9 |
| 20260905200005 | 99 | 0 | 0.0 | 0.0 | 0.00 | 0.00 | 0.00 | 50 | 1009.9 |
| 20260905195504 | 98 | 327 | 0.0 | 1.7 | 0.00 | 0.00 | 0.00 | 51 | 1010.2 |
| 20260905195005 | 98 | 324 | 0.9 | 4.3 | 0.00 | 0.00 | 0.00 | 50 | 1010.2 |
| 20260905194504 | 98 | 321 | 0.9 | 7.8 | 0.00 | 0.00 | 0.00 | 50 | 1010.2 |
| 20260905194004 | 98 | 317 | 0.9 | 7.8 | 0.00 | 0.00 | 0.00 | 50 | 1010.4 |
| 20260905192504 | 98 | 292 | 0.0 | 4.3 | 0.00 | 0.00 | 0.00 | 50 | 1010.8 |
| 20260905192005 | 98 | 230 | 0.0 | 4.3 | 0.00 | 0.00 | 0.00 | 50 | 1010.8 |
| 20260905191005 | 97 | 0 | 0.0 | 0.0 | 0.00 | 0.00 | 0.00 | 50 | 1010.8 |
| 20260905190004 | 97 | 292 | 0.9 | 5.2 | 0.00 | 0.00 | 0.00 | 51 | 1011.0 |
| 20260905185504 | 97 | 292 | 0.9 | 5.2 | 0.00 | 0.00 | 0.00 | 50 | 1011.1 |
| 20260905185005 | 97 | 233 | 0.0 | 7.8 | 0.00 | 0.00 | 0.00 | 50 | 1011.1 |
| 20260905184504 | 97 | 233 | 0.9 | 7.8 | 0.00 | 0.00 | 0.00 | 51 | 1011.3 |
| 20260905182504 | 96 | 0 | 0.0 | 0.0 | 0.00 | 0.00 | 0.00 | 52 | 1011.5 |
| 20260905182005 | 96 | 0 | 0.0 | 0.0 | 0.00 | 0.00 | 0.00 | 52 | 1011.7 |
| 20260905181504 | 95 | 0 | 0.0 | 0.0 | 0.00 | 0.00 | 0.00 | 53 | 1011.7 |
| 20260905181004 | 95 | 0 | 0.0 | 0.0 | 0.00 | 0.00 | 0.00 | 53 | 1011.6 |
| 20260905180505 | 95 | 0 | 0.0 | 0.0 | 0.00 | 0.00 | 0.00 | 53 | 1011.8 |
| 20260905180004 | 95 | 0 | 0.0 | 0.0 | 0.00 | 0.00 | 0.00 | 55 | 1011.8 |
| 20260905175004 | 95 | 0 | 0.0 | 0.0 | 0.00 | 0.00 | 0.00 | 53 | 1011.9 |
| 20260905174504 | 94 | 0 | 0.0 | 0.0 | 0.00 | 0.00 | 0.00 | 53 | 1011.9 |
| 20260905174005 | 94 | 0 | 0.0 | 0.0 | 0.00 | 0.00 | 0.00 | 53 | 1012.0 |
| 20260905173504 | 94 | 0 | 0.0 | 0.0 | 0.00 | 0.00 | 0.00 | 53 | 1011.9 |
| 20260905173005 | 94 | 0 | 0.0 | 0.0 | 0.00 | 0.00 | 0.00 | 52 | 1012.0 |
| 20260905172504 | 94 | 0 | 0.0 | 0.0 | 0.00 | 0.00 | 0.00 | 53 | 1012.0 |
| 20260905172005 | 94 | 0 | 0.0 | 0.0 | 0.00 | 0.00 | 0.00 | 53 | 1012.2 |
| 20260905171004 | 94 | 0 | 0.0 | 0.0 | 0.00 | 0.00 | 0.00 | 53 | 1012.1 |
| 20260905170504 | 94 | 0 | 0.0 | 0.0 | 0.00 | 0.00 | 0.00 | 53 | 1012.2 |
| 20260905170004 | 94 | 0 | 0.0 | 0.0 | 0.00 | 0.00 | 0.00 | 54 | 1012.4 |
| 20260905165504 | 93 | 0 | 0.0 | 0.0 | 0.00 | 0.00 | 0.00 | 55 | 1012.4 |
| 20260905164504 | 93 | 0 | 0.0 | 0.0 | 0.00 | 0.00 | 0.00 | 56 | 1012.7 |
| 20260905164005 | 93 | 0 | 0.0 | 0.0 | 0.00 | 0.00 | 0.00 | 56 | 1012.8 |
| 20260905163004 | 92 | 120 | 0.0 | 0.9 | 0.00 | 0.00 | 0.00 | 56 | 1013.0 |
| 20260905162504 | 92 | 120 | 0.0 | 0.9 | 0.00 | 0.00 | 0.00 | 56 | 1013.2 |
| 20260905162004 | 92 | 0 | 0.0 | 0.0 | 0.00 | 0.00 | 0.00 | 58 | 1013.1 |
| 20260905161004 | 91 | 0 | 0.0 | 0.0 | 0.00 | 0.00 | 0.00 | 60 | 1012.9 |
| 20260905160504 | 91 | 199 | 0.0 | 1.7 | 0.00 | 0.00 | 0.00 | 60 | 1012.8 |
| 20260905160004 | 91 | 152 | 0.9 | 4.3 | 0.00 | 0.00 | 0.00 | 60 | 1012.9 |
| 20260905155504 | 91 | 139 | 0.9 | 4.3 | 0.00 | 0.00 | 0.00 | 61 | 1013.0 |
| 20260905155005 | 90 | 127 | 0.9 | 3.5 | 0.00 | 0.00 | 0.00 | 62 | 1013.0 |
| 20260905154504 | 90 | 127 | 0.9 | 3.5 | 0.00 | 0.00 | 0.00 | 62 | 1013.0 |
| 20260905154005 | 90 | 127 | 0.0 | 3.5 | 0.00 | 0.00 | 0.00 | 61 | 1013.1 |
| 20260905153504 | 89 | 0 | 0.0 | 0.0 | 0.00 | 0.00 | 0.00 | 62 | 1013.2 |
| 20260905153005 | 89 | 0 | 0.0 | 0.0 | 0.00 | 0.00 | 0.00 | 62 | 1013.1 |
| 20260905152504 | 88 | 0 | 0.0 | 0.0 | 0.00 | 0.00 | 0.00 | 63 | 1013.2 |
| 20260905152004 | 88 | 98 | 0.9 | 4.3 | 0.00 | 0.00 | 0.00 | 64 | 1013.2 |
| 20260905151504 | 88 | 98 | 0.9 | 4.3 | 0.00 | 0.00 | 0.00 | 66 | 1013.2 |
| 20260905150504 | 86 | 96 | 0.0 | 5.2 | 0.00 | 0.00 | 0.00 | 67 | 1013.1 |
| 20260905150005 | 86 | 94 | 1.7 | 5.2 | 0.00 | 0.00 | 0.00 | 68 | 1013.3 |
| 20260905145504 | 85 | 67 | 1.7 | 6.1 | 0.00 | 0.00 | 0.00 | 68 | 1013.4 |
| 20260905144504 | 84 | 93 | 2.6 | 7.0 | 0.00 | 0.00 | 0.00 | 69 | 1013.5 |
| 20260905144004 | 84 | 99 | 2.6 | 7.0 | 0.00 | 0.00 | 0.00 | 70 | 1013.4 |
| 20260905143504 | 84 | 87 | 2.6 | 7.0 | 0.00 | 0.00 | 0.00 | 71 | 1013.6 |
| 20260905143004 | 83 | 99 | 2.6 | 7.0 | 0.00 | 0.00 | 0.00 | 72 | 1013.5 |
| 20260905142004 | 82 | 34 | 1.7 | 7.0 | 0.00 | 0.00 | 0.00 | 75 | 1013.7 |
| 20260905141504 | 81 | 28 | 2.6 | 7.0 | 0.00 | 0.00 | 0.00 | 75 | 1013.7 |
| 20260905140504 | 80 | 34 | 2.6 | 7.8 | 0.00 | 0.00 | 0.00 | 76 | 1013.8 |
| 20260905140005 | 80 | 55 | 2.6 | 7.8 | 0.00 | 0.00 | 0.00 | 78 | 1014.0 |
| 20260905135504 | 79 | 57 | 2.6 | 6.1 | 0.00 | 0.00 | 0.00 | 80 | 1014.0 |
| 20260905135004 | 79 | 31 | 1.7 | 6.1 | 0.00 | 0.00 | 0.00 | 82 | 1013.8 |
| 20260905134504 | 79 | 17 | 1.7 | 6.1 | 0.00 | 0.00 | 0.00 | 82 | 1014.1 |
| 20260905133504 | 79 | 20 | 2.6 | 7.8 | 0.00 | 0.00 | 0.00 | 82 | 1014.2 |
| 20260905133004 | 79 | 34 | 3.5 | 7.8 | 0.00 | 0.00 | 0.00 | 82 | 1014.0 |
| 20260905132504 | 79 | 41 | 3.5 | 9.6 | 0.00 | 0.00 | 0.00 | 82 | 1014.1 |
| 20260905132004 | 80 | 24 | 3.5 | 9.6 | 0.00 | 0.00 | 0.00 | 81 | 1014.1 |
| 20260905131504 | 80 | 8 | 4.3 | 9.6 | 0.00 | 0.00 | 0.00 | 82 | 1014.4 |
| 20260905131004 | 80 | 12 | 2.6 | 8.7 | 0.00 | 0.00 | 0.00 | 81 | 1014.7 |
| 20260905130004 | 80 | 17 | 2.6 | 7.8 | 0.00 | 0.00 | 0.00 | 81 | 1014.6 |
| 20260905125504 | 80 | 23 | 3.5 | 7.8 | 0.00 | 0.00 | 0.00 | 80 | 1014.3 |
| 20260905125005 | 81 | 21 | 3.5 | 11.3 | 0.00 | 0.00 | 0.00 | 79 | 1014.1 |
| 20260905124504 | 81 | 14 | 2.6 | 11.3 | 0.00 | 0.00 | 0.00 | 78 | 1014.1 |
| 20260905124004 | 81 | 26 | 0.9 | 9.6 | 0.00 | 0.00 | 0.00 | 78 | 1014.2 |
| 20260905123504 | 81 | 55 | 0.9 | 2.6 | 0.00 | 0.00 | 0.00 | 77 | 1013.4 |
| 20260905123005 | 81 | 55 | 0.9 | 3.5 | 0.00 | 0.00 | 0.00 | 78 | 1013.3 |
| 20260905122504 | 81 | 51 | 2.6 | 6.1 | 0.00 | 0.00 | 0.00 | 78 | 1012.9 |
| 20260905122005 | 81 | 44 | 2.6 | 6.1 | 0.00 | 0.00 | 0.00 | 78 | 1012.8 |
| 20260905121504 | 81 | 27 | 2.6 | 6.1 | 0.00 | 0.00 | 0.00 | 79 | 1012.8 |
| 20260905121005 | 81 | 20 | 1.7 | 6.1 | 0.00 | 0.00 | 0.00 | 78 | 1012.9 |
| 20260905120004 | 81 | 15 | 0.9 | 5.2 | 0.00 | 0.00 | 0.00 | 79 | 1013.2 |
| 20260905115503 | 81 | 15 | 0.9 | 5.2 | 0.00 | 0.00 | 0.00 | 79 | 1013.0 |
| 20260905115004 | 82 | 16 | 0.9 | 3.5 | 0.00 | 0.00 | 0.00 | 78 | 1013.1 |
| 20260905114504 | 82 | 12 | 0.9 | 5.2 | 0.00 | 0.00 | 0.00 | 78 | 1013.0 |
| 20260905114004 | 82 | 11 | 0.9 | 5.2 | 0.00 | 0.00 | 0.00 | 78 | 1012.6 |
| 20260905113504 | 82 | 10 | 0.0 | 2.6 | 0.00 | 0.00 | 0.00 | 78 | 1012.6 |
| 20260905113005 | 82 | 10 | 0.0 | 3.5 | 0.00 | 0.00 | 0.00 | 79 | 1012.5 |
| 20260905112504 | 82 | 9 | 0.9 | 3.5 | 0.00 | 0.00 | 0.00 | 79 | 1012.4 |
| 20260905112004 | 82 | 9 | 1.7 | 3.5 | 0.00 | 0.00 | 0.00 | 79 | 1012.5 |
| 20260905111503 | 82 | 8 | 1.7 | 5.2 | 0.00 | 0.00 | 0.00 | 79 | 1012.5 |
| 20260905111004 | 82 | 17 | 1.7 | 7.0 | 0.00 | 0.00 | 0.00 | 79 | 1012.4 |
| 20260905110504 | 82 | 31 | 2.6 | 7.0 | 0.00 | 0.00 | 0.00 | 79 | 1012.2 |
| 20260905110004 | 82 | 29 | 3.5 | 10.4 | 0.00 | 0.00 | 0.00 | 79 | 1012.2 |
| 20260905105504 | 83 | 6 | 3.5 | 10.4 | 0.00 | 0.00 | 0.00 | 79 | 1012.2 |
| 20260905105004 | 83 | 327 | 1.7 | 9.6 | 0.00 | 0.00 | 0.00 | 78 | 1012.1 |
| 20260905104504 | 83 | 304 | 1.7 | 3.5 | 0.00 | 0.00 | 0.00 | 77 | 1011.6 |
| 20260905104004 | 83 | 303 | 1.7 | 3.5 | 0.00 | 0.00 | 0.00 | 77 | 1011.6 |
| 20260905103004 | 83 | 304 | 0.9 | 2.6 | 0.00 | 0.00 | 0.00 | 76 | 1011.4 |
| 20260905102504 | 83 | 303 | 0.9 | 2.6 | 0.00 | 0.00 | 0.00 | 76 | 1011.5 |
| 20260905102004 | 83 | 304 | 0.9 | 4.3 | 0.00 | 0.00 | 0.00 | 76 | 1011.5 |
| 20260905101504 | 83 | 304 | 1.7 | 4.3 | 0.00 | 0.00 | 0.00 | 76 | 1011.5 |
| 20260905101005 | 84 | 306 | 2.6 | 5.2 | 0.00 | 0.00 | 0.00 | 75 | 1011.5 |
| 20260905100504 | 84 | 312 | 1.7 | 5.2 | 0.00 | 0.00 | 0.00 | 75 | 1011.5 |